sensor_id;sensor_type;location;lat;lon;timestamp;P1;durP1;ratioP1;P2;durP2;ratioP2
38338;SDS011;37117;50.050;19.924;2022-11-13T00:02:19;50.20;;;31.00;;
38338;SDS011;37117;50.050;19.924;2022-11-13T00:05:09;50.90;;;32.40;;
38338;SDS011;37117;50.050;19.924;2022-11-13T00:07:58;52.30;;;31.40;;
38338;SDS011;37117;50.050;19.924;2022-11-13T00:10:48;56.10;;;32.20;;
38338;SDS011;37117;50.050;19.924;2022-11-13T00:13:38;59.70;;;31.90;;
38338;SDS011;37117;50.050;19.924;2022-11-13T00:16:27;47.50;;;31.70;;
38338;SDS011;37117;50.050;19.924;2022-11-13T00:19:17;58.70;;;30.60;;
38338;SDS011;37117;50.050;19.924;2022-11-13T00:22:06;46.30;;;29.40;;
38338;SDS011;37117;50.050;19.924;2022-11-13T00:24:56;50.90;;;29.90;;
38338;SDS011;37117;50.050;19.924;2022-11-13T00:27:45;51.60;;;32.80;;
38338;SDS011;37117;50.050;19.924;2022-11-13T00:30:35;53.60;;;33.10;;
38338;SDS011;37117;50.050;19.924;2022-11-13T00:33:24;50.00;;;32.90;;
38338;SDS011;37117;50.050;19.924;2022-11-13T00:36:34;55.20;;;31.50;;
38338;SDS011;37117;50.050;19.924;2022-11-13T00:39:24;51.00;;;31.10;;
38338;SDS011;37117;50.050;19.924;2022-11-13T00:42:14;51.20;;;30.20;;
38338;SDS011;37117;50.050;19.924;2022-11-13T00:45:04;51.40;;;32.10;;
38338;SDS011;37117;50.050;19.924;2022-11-13T00:47:56;47.50;;;29.80;;
38338;SDS011;37117;50.050;19.924;2022-11-13T00:50:45;49.20;;;30.30;;
38338;SDS011;37117;50.050;19.924;2022-11-13T00:53:35;48.70;;;30.20;;
38338;SDS011;37117;50.050;19.924;2022-11-13T00:56:25;50.80;;;32.30;;
38338;SDS011;37117;50.050;19.924;2022-11-13T00:59:14;51.70;;;34.10;;
38338;SDS011;37117;50.050;19.924;2022-11-13T01:02:03;57.50;;;33.40;;
38338;SDS011;37117;50.050;19.924;2022-11-13T01:04:53;48.60;;;29.50;;
38338;SDS011;37117;50.050;19.924;2022-11-13T01:07:42;50.20;;;30.90;;
38338;SDS011;37117;50.050;19.924;2022-11-13T01:10:32;52.90;;;31.20;;
38338;SDS011;37117;50.050;19.924;2022-11-13T01:13:22;51.80;;;28.80;;
38338;SDS011;37117;50.050;19.924;2022-11-13T01:16:12;49.50;;;29.90;;
38338;SDS011;37117;50.050;19.924;2022-11-13T01:19:02;53.10;;;29.50;;
38338;SDS011;37117;50.050;19.924;2022-11-13T01:21:52;56.10;;;35.10;;
38338;SDS011;37117;50.050;19.924;2022-11-13T01:24:41;54.20;;;34.70;;
38338;SDS011;37117;50.050;19.924;2022-11-13T01:27:30;58.40;;;33.70;;
38338;SDS011;37117;50.050;19.924;2022-11-13T01:30:19;51.70;;;31.10;;
38338;SDS011;37117;50.050;19.924;2022-11-13T01:33:09;47.70;;;30.60;;
38338;SDS011;37117;50.050;19.924;2022-11-13T01:36:02;48.80;;;29.30;;
38338;SDS011;37117;50.050;19.924;2022-11-13T01:41:40;50.90;;;29.10;;
38338;SDS011;37117;50.050;19.924;2022-11-13T01:47:34;49.40;;;31.70;;
38338;SDS011;37117;50.050;19.924;2022-11-13T01:50:24;58.00;;;34.50;;
38338;SDS011;37117;50.050;19.924;2022-11-13T01:53:14;51.10;;;28.70;;
38338;SDS011;37117;50.050;19.924;2022-11-13T01:56:04;55.40;;;31.30;;
38338;SDS011;37117;50.050;19.924;2022-11-13T01:58:56;49.50;;;31.00;;
38338;SDS011;37117;50.050;19.924;2022-11-13T02:01:46;57.50;;;32.90;;
38338;SDS011;37117;50.050;19.924;2022-11-13T02:04:36;54.10;;;32.20;;
38338;SDS011;37117;50.050;19.924;2022-11-13T02:07:26;54.80;;;29.70;;
38338;SDS011;37117;50.050;19.924;2022-11-13T02:10:16;55.40;;;33.80;;
38338;SDS011;37117;50.050;19.924;2022-11-13T02:13:05;53.80;;;34.10;;
38338;SDS011;37117;50.050;19.924;2022-11-13T02:15:54;56.90;;;33.20;;
38338;SDS011;37117;50.050;19.924;2022-11-13T02:18:44;50.50;;;32.10;;
38338;SDS011;37117;50.050;19.924;2022-11-13T02:21:36;57.60;;;31.80;;
38338;SDS011;37117;50.050;19.924;2022-11-13T02:24:28;55.30;;;33.60;;
38338;SDS011;37117;50.050;19.924;2022-11-13T02:27:26;50.00;;;31.20;;
38338;SDS011;37117;50.050;19.924;2022-11-13T02:30:18;53.00;;;34.10;;
38338;SDS011;37117;50.050;19.924;2022-11-13T02:33:20;51.20;;;33.10;;
38338;SDS011;37117;50.050;19.924;2022-11-13T02:36:09;50.90;;;31.00;;
38338;SDS011;37117;50.050;19.924;2022-11-13T02:39:01;53.50;;;32.90;;
38338;SDS011;37117;50.050;19.924;2022-11-13T02:41:51;55.60;;;32.70;;
38338;SDS011;37117;50.050;19.924;2022-11-13T02:44:40;56.40;;;32.00;;
38338;SDS011;37117;50.050;19.924;2022-11-13T02:47:30;50.10;;;30.00;;
38338;SDS011;37117;50.050;19.924;2022-11-13T02:50:20;47.50;;;27.20;;
38338;SDS011;37117;50.050;19.924;2022-11-13T02:53:09;53.10;;;31.60;;
38338;SDS011;37117;50.050;19.924;2022-11-13T02:55:59;54.30;;;33.40;;
38338;SDS011;37117;50.050;19.924;2022-11-13T02:58:48;57.20;;;34.60;;
38338;SDS011;37117;50.050;19.924;2022-11-13T03:01:37;49.80;;;30.40;;
38338;SDS011;37117;50.050;19.924;2022-11-13T03:04:27;50.80;;;28.70;;
38338;SDS011;37117;50.050;19.924;2022-11-13T03:07:36;50.50;;;29.60;;
38338;SDS011;37117;50.050;19.924;2022-11-13T03:10:26;49.40;;;29.80;;
38338;SDS011;37117;50.050;19.924;2022-11-13T03:13:15;49.40;;;30.80;;
38338;SDS011;37117;50.050;19.924;2022-11-13T03:16:09;52.20;;;30.90;;
38338;SDS011;37117;50.050;19.924;2022-11-13T03:18:58;63.10;;;37.20;;
38338;SDS011;37117;50.050;19.924;2022-11-13T03:21:48;56.90;;;31.60;;
38338;SDS011;37117;50.050;19.924;2022-11-13T03:24:37;57.10;;;33.90;;
38338;SDS011;37117;50.050;19.924;2022-11-13T03:27:28;55.20;;;33.60;;
38338;SDS011;37117;50.050;19.924;2022-11-13T03:30:18;56.00;;;31.60;;
38338;SDS011;37117;50.050;19.924;2022-11-13T03:33:08;57.70;;;32.90;;
38338;SDS011;37117;50.050;19.924;2022-11-13T03:35:57;57.70;;;32.80;;
38338;SDS011;37117;50.050;19.924;2022-11-13T03:38:46;62.80;;;37.20;;
38338;SDS011;37117;50.050;19.924;2022-11-13T03:41:36;66.00;;;36.30;;
38338;SDS011;37117;50.050;19.924;2022-11-13T03:44:25;64.60;;;37.60;;
38338;SDS011;37117;50.050;19.924;2022-11-13T03:47:14;61.50;;;33.90;;
38338;SDS011;37117;50.050;19.924;2022-11-13T03:50:04;59.80;;;33.80;;
38338;SDS011;37117;50.050;19.924;2022-11-13T03:52:54;64.90;;;34.80;;
38338;SDS011;37117;50.050;19.924;2022-11-13T03:55:44;56.70;;;34.20;;
38338;SDS011;37117;50.050;19.924;2022-11-13T03:58:34;62.90;;;32.70;;
38338;SDS011;37117;50.050;19.924;2022-11-13T04:01:27;58.30;;;33.70;;
38338;SDS011;37117;50.050;19.924;2022-11-13T04:04:17;59.00;;;33.40;;
38338;SDS011;37117;50.050;19.924;2022-11-13T04:07:06;60.40;;;34.90;;
38338;SDS011;37117;50.050;19.924;2022-11-13T04:09:56;66.40;;;37.10;;
38338;SDS011;37117;50.050;19.924;2022-11-13T04:12:45;62.20;;;35.20;;
38338;SDS011;37117;50.050;19.924;2022-11-13T04:15:35;63.10;;;33.50;;
38338;SDS011;37117;50.050;19.924;2022-11-13T04:18:24;57.90;;;32.70;;
38338;SDS011;37117;50.050;19.924;2022-11-13T04:21:14;64.60;;;35.50;;
38338;SDS011;37117;50.050;19.924;2022-11-13T04:24:04;65.10;;;34.70;;
38338;SDS011;37117;50.050;19.924;2022-11-13T04:26:53;58.10;;;33.10;;
38338;SDS011;37117;50.050;19.924;2022-11-13T04:29:43;57.70;;;32.40;;
38338;SDS011;37117;50.050;19.924;2022-11-13T04:32:32;61.90;;;35.80;;
38338;SDS011;37117;50.050;19.924;2022-11-13T04:35:22;62.80;;;34.80;;
38338;SDS011;37117;50.050;19.924;2022-11-13T04:38:11;60.70;;;34.30;;
38338;SDS011;37117;50.050;19.924;2022-11-13T04:41:01;57.20;;;32.90;;
38338;SDS011;37117;50.050;19.924;2022-11-13T04:44:16;56.90;;;31.90;;
38338;SDS011;37117;50.050;19.924;2022-11-13T04:47:06;56.90;;;31.50;;
38338;SDS011;37117;50.050;19.924;2022-11-13T04:49:56;61.40;;;31.80;;
38338;SDS011;37117;50.050;19.924;2022-11-13T04:52:46;60.00;;;31.90;;
38338;SDS011;37117;50.050;19.924;2022-11-13T04:55:36;63.50;;;36.60;;
38338;SDS011;37117;50.050;19.924;2022-11-13T04:58:25;58.80;;;32.50;;
38338;SDS011;37117;50.050;19.924;2022-11-13T05:01:15;57.00;;;32.20;;
38338;SDS011;37117;50.050;19.924;2022-11-13T05:04:05;59.30;;;32.70;;
38338;SDS011;37117;50.050;19.924;2022-11-13T05:06:54;51.80;;;29.50;;
38338;SDS011;37117;50.050;19.924;2022-11-13T05:09:43;53.90;;;32.10;;
38338;SDS011;37117;50.050;19.924;2022-11-13T05:12:34;56.80;;;30.90;;
38338;SDS011;37117;50.050;19.924;2022-11-13T05:15:23;55.10;;;29.20;;
38338;SDS011;37117;50.050;19.924;2022-11-13T05:18:13;54.80;;;32.60;;
38338;SDS011;37117;50.050;19.924;2022-11-13T05:21:02;56.20;;;32.50;;
38338;SDS011;37117;50.050;19.924;2022-11-13T05:23:52;61.70;;;34.30;;
38338;SDS011;37117;50.050;19.924;2022-11-13T05:26:41;55.10;;;30.80;;
38338;SDS011;37117;50.050;19.924;2022-11-13T05:29:31;54.50;;;31.50;;
38338;SDS011;37117;50.050;19.924;2022-11-13T05:32:20;50.40;;;29.10;;
38338;SDS011;37117;50.050;19.924;2022-11-13T05:35:10;54.20;;;31.60;;
38338;SDS011;37117;50.050;19.924;2022-11-13T05:38:00;50.30;;;28.80;;
38338;SDS011;37117;50.050;19.924;2022-11-13T05:40:50;52.40;;;31.80;;
38338;SDS011;37117;50.050;19.924;2022-11-13T05:43:39;60.30;;;32.20;;
38338;SDS011;37117;50.050;19.924;2022-11-13T05:46:29;57.50;;;31.90;;
38338;SDS011;37117;50.050;19.924;2022-11-13T05:49:18;59.40;;;31.10;;
38338;SDS011;37117;50.050;19.924;2022-11-13T05:52:07;48.00;;;28.30;;
38338;SDS011;37117;50.050;19.924;2022-11-13T05:54:57;46.80;;;28.30;;
38338;SDS011;37117;50.050;19.924;2022-11-13T05:57:46;50.40;;;30.70;;
38338;SDS011;37117;50.050;19.924;2022-11-13T06:00:36;50.30;;;28.80;;
38338;SDS011;37117;50.050;19.924;2022-11-13T06:03:25;52.50;;;29.80;;
38338;SDS011;37117;50.050;19.924;2022-11-13T06:06:16;55.30;;;31.80;;
38338;SDS011;37117;50.050;19.924;2022-11-13T06:09:05;56.90;;;31.80;;
38338;SDS011;37117;50.050;19.924;2022-11-13T06:11:55;61.10;;;32.70;;
38338;SDS011;37117;50.050;19.924;2022-11-13T06:14:44;54.40;;;32.30;;
38338;SDS011;37117;50.050;19.924;2022-11-13T06:17:34;61.80;;;31.00;;
38338;SDS011;37117;50.050;19.924;2022-11-13T06:20:23;48.60;;;28.90;;
38338;SDS011;37117;50.050;19.924;2022-11-13T06:23:13;56.20;;;30.20;;
38338;SDS011;37117;50.050;19.924;2022-11-13T06:26:03;54.30;;;30.60;;
38338;SDS011;37117;50.050;19.924;2022-11-13T06:28:53;47.60;;;25.30;;
38338;SDS011;37117;50.050;19.924;2022-11-13T06:31:42;50.90;;;28.20;;
38338;SDS011;37117;50.050;19.924;2022-11-13T06:34:31;53.90;;;29.60;;
38338;SDS011;37117;50.050;19.924;2022-11-13T06:37:21;56.90;;;30.10;;
38338;SDS011;37117;50.050;19.924;2022-11-13T06:40:11;54.30;;;28.00;;
38338;SDS011;37117;50.050;19.924;2022-11-13T06:43:01;58.80;;;30.80;;
38338;SDS011;37117;50.050;19.924;2022-11-13T06:45:50;55.70;;;30.60;;
38338;SDS011;37117;50.050;19.924;2022-11-13T06:48:40;55.20;;;29.50;;
38338;SDS011;37117;50.050;19.924;2022-11-13T06:51:30;49.90;;;26.90;;
38338;SDS011;37117;50.050;19.924;2022-11-13T06:54:19;54.00;;;30.90;;
38338;SDS011;37117;50.050;19.924;2022-11-13T06:57:09;54.50;;;28.50;;
38338;SDS011;37117;50.050;19.924;2022-11-13T06:59:58;56.70;;;27.90;;
38338;SDS011;37117;50.050;19.924;2022-11-13T07:02:48;57.70;;;30.90;;
38338;SDS011;37117;50.050;19.924;2022-11-13T07:05:38;50.90;;;29.20;;
38338;SDS011;37117;50.050;19.924;2022-11-13T07:08:27;54.90;;;30.30;;
38338;SDS011;37117;50.050;19.924;2022-11-13T07:11:18;55.50;;;28.50;;
38338;SDS011;37117;50.050;19.924;2022-11-13T07:14:09;47.40;;;25.00;;
38338;SDS011;37117;50.050;19.924;2022-11-13T07:16:58;49.00;;;25.00;;
38338;SDS011;37117;50.050;19.924;2022-11-13T07:19:58;55.50;;;26.40;;
38338;SDS011;37117;50.050;19.924;2022-11-13T07:22:47;47.20;;;26.50;;
38338;SDS011;37117;50.050;19.924;2022-11-13T07:25:36;47.00;;;25.70;;
38338;SDS011;37117;50.050;19.924;2022-11-13T07:28:26;47.90;;;23.70;;
38338;SDS011;37117;50.050;19.924;2022-11-13T07:31:16;52.10;;;26.30;;
38338;SDS011;37117;50.050;19.924;2022-11-13T07:34:06;48.60;;;25.90;;
38338;SDS011;37117;50.050;19.924;2022-11-13T07:36:57;44.80;;;24.40;;
38338;SDS011;37117;50.050;19.924;2022-11-13T07:39:46;50.90;;;26.00;;
38338;SDS011;37117;50.050;19.924;2022-11-13T07:42:36;46.00;;;25.30;;
38338;SDS011;37117;50.050;19.924;2022-11-13T07:45:25;44.60;;;24.30;;
38338;SDS011;37117;50.050;19.924;2022-11-13T07:48:16;43.70;;;22.80;;
38338;SDS011;37117;50.050;19.924;2022-11-13T07:51:05;48.50;;;25.20;;
38338;SDS011;37117;50.050;19.924;2022-11-13T07:53:55;52.50;;;26.60;;
38338;SDS011;37117;50.050;19.924;2022-11-13T07:56:44;50.50;;;27.80;;
38338;SDS011;37117;50.050;19.924;2022-11-13T07:59:35;50.00;;;26.10;;
38338;SDS011;37117;50.050;19.924;2022-11-13T08:02:25;50.30;;;25.50;;
38338;SDS011;37117;50.050;19.924;2022-11-13T08:05:15;50.70;;;26.40;;
38338;SDS011;37117;50.050;19.924;2022-11-13T08:08:04;56.00;;;30.70;;
38338;SDS011;37117;50.050;19.924;2022-11-13T08:10:55;51.20;;;26.40;;
38338;SDS011;37117;50.050;19.924;2022-11-13T08:13:46;52.70;;;28.10;;
38338;SDS011;37117;50.050;19.924;2022-11-13T08:16:36;51.80;;;27.70;;
38338;SDS011;37117;50.050;19.924;2022-11-13T08:19:25;47.40;;;23.90;;
38338;SDS011;37117;50.050;19.924;2022-11-13T08:22:15;46.80;;;25.40;;
38338;SDS011;37117;50.050;19.924;2022-11-13T08:25:04;48.10;;;27.10;;
38338;SDS011;37117;50.050;19.924;2022-11-13T08:27:54;54.70;;;28.80;;
38338;SDS011;37117;50.050;19.924;2022-11-13T08:30:44;54.30;;;28.10;;
38338;SDS011;37117;50.050;19.924;2022-11-13T08:33:34;60.50;;;28.10;;
38338;SDS011;37117;50.050;19.924;2022-11-13T08:36:23;52.40;;;26.30;;
38338;SDS011;37117;50.050;19.924;2022-11-13T08:39:13;52.80;;;27.70;;
38338;SDS011;37117;50.050;19.924;2022-11-13T08:42:02;58.50;;;28.90;;
38338;SDS011;37117;50.050;19.924;2022-11-13T08:44:52;52.90;;;27.10;;
38338;SDS011;37117;50.050;19.924;2022-11-13T08:47:42;48.10;;;23.70;;
38338;SDS011;37117;50.050;19.924;2022-11-13T08:50:32;45.50;;;27.00;;
38338;SDS011;37117;50.050;19.924;2022-11-13T08:53:22;55.80;;;30.80;;
38338;SDS011;37117;50.050;19.924;2022-11-13T08:56:12;53.60;;;27.50;;
38338;SDS011;37117;50.050;19.924;2022-11-13T08:59:01;48.00;;;25.90;;
38338;SDS011;37117;50.050;19.924;2022-11-13T09:01:51;42.60;;;25.80;;
38338;SDS011;37117;50.050;19.924;2022-11-13T09:04:45;43.40;;;23.80;;
38338;SDS011;37117;50.050;19.924;2022-11-13T09:07:35;43.70;;;23.70;;
38338;SDS011;37117;50.050;19.924;2022-11-13T09:10:24;42.70;;;24.90;;
38338;SDS011;37117;50.050;19.924;2022-11-13T09:13:14;54.70;;;28.00;;
38338;SDS011;37117;50.050;19.924;2022-11-13T09:16:04;57.30;;;30.10;;
38338;SDS011;37117;50.050;19.924;2022-11-13T09:18:53;49.30;;;27.70;;
38338;SDS011;37117;50.050;19.924;2022-11-13T09:21:43;58.50;;;27.60;;
38338;SDS011;37117;50.050;19.924;2022-11-13T09:24:34;51.80;;;28.50;;
38338;SDS011;37117;50.050;19.924;2022-11-13T09:27:23;47.90;;;25.20;;
38338;SDS011;37117;50.050;19.924;2022-11-13T09:30:13;47.10;;;26.40;;
38338;SDS011;37117;50.050;19.924;2022-11-13T09:33:03;43.50;;;24.10;;
38338;SDS011;37117;50.050;19.924;2022-11-13T09:35:52;45.00;;;26.70;;
38338;SDS011;37117;50.050;19.924;2022-11-13T09:38:42;45.80;;;25.30;;
38338;SDS011;37117;50.050;19.924;2022-11-13T09:41:32;48.50;;;26.20;;
38338;SDS011;37117;50.050;19.924;2022-11-13T09:44:24;46.40;;;25.10;;
38338;SDS011;37117;50.050;19.924;2022-11-13T09:47:17;44.30;;;24.90;;
38338;SDS011;37117;50.050;19.924;2022-11-13T09:50:10;45.50;;;25.40;;
38338;SDS011;37117;50.050;19.924;2022-11-13T09:53:02;41.40;;;23.50;;
38338;SDS011;37117;50.050;19.924;2022-11-13T09:55:55;45.60;;;24.80;;
38338;SDS011;37117;50.050;19.924;2022-11-13T09:58:46;47.20;;;24.90;;
38338;SDS011;37117;50.050;19.924;2022-11-13T10:01:39;45.40;;;25.90;;
38338;SDS011;37117;50.050;19.924;2022-11-13T10:04:36;47.80;;;27.50;;
38338;SDS011;37117;50.050;19.924;2022-11-13T10:07:31;48.00;;;25.30;;
38338;SDS011;37117;50.050;19.924;2022-11-13T10:13:39;44.90;;;25.30;;
38338;SDS011;37117;50.050;19.924;2022-11-13T10:16:32;44.10;;;24.40;;
38338;SDS011;37117;50.050;19.924;2022-11-13T10:19:24;45.30;;;26.00;;
38338;SDS011;37117;50.050;19.924;2022-11-13T10:22:17;41.90;;;23.10;;
38338;SDS011;37117;50.050;19.924;2022-11-13T10:25:24;47.00;;;26.00;;
38338;SDS011;37117;50.050;19.924;2022-11-13T10:28:16;54.20;;;27.70;;
38338;SDS011;37117;50.050;19.924;2022-11-13T10:31:25;48.80;;;26.60;;
38338;SDS011;37117;50.050;19.924;2022-11-13T10:34:14;50.60;;;27.00;;
38338;SDS011;37117;50.050;19.924;2022-11-13T10:37:11;53.00;;;29.40;;
38338;SDS011;37117;50.050;19.924;2022-11-13T10:40:06;49.60;;;28.30;;
38338;SDS011;37117;50.050;19.924;2022-11-13T10:43:02;55.20;;;31.40;;
38338;SDS011;37117;50.050;19.924;2022-11-13T10:45:55;54.40;;;30.70;;
38338;SDS011;37117;50.050;19.924;2022-11-13T10:48:45;56.50;;;28.70;;
38338;SDS011;37117;50.050;19.924;2022-11-13T10:51:35;53.60;;;29.50;;
38338;SDS011;37117;50.050;19.924;2022-11-13T10:54:26;53.00;;;28.40;;
38338;SDS011;37117;50.050;19.924;2022-11-13T10:57:22;49.00;;;27.50;;
38338;SDS011;37117;50.050;19.924;2022-11-13T11:00:23;57.70;;;29.10;;
38338;SDS011;37117;50.050;19.924;2022-11-13T11:03:16;47.40;;;29.20;;
38338;SDS011;37117;50.050;19.924;2022-11-13T11:06:06;51.10;;;31.70;;
38338;SDS011;37117;50.050;19.924;2022-11-13T11:09:03;52.30;;;31.30;;
38338;SDS011;37117;50.050;19.924;2022-11-13T11:12:00;51.00;;;30.80;;
38338;SDS011;37117;50.050;19.924;2022-11-13T11:15:17;49.50;;;30.30;;
38338;SDS011;37117;50.050;19.924;2022-11-13T11:18:09;55.00;;;30.80;;
38338;SDS011;37117;50.050;19.924;2022-11-13T11:21:04;48.50;;;31.10;;
38338;SDS011;37117;50.050;19.924;2022-11-13T11:23:57;53.30;;;33.00;;
38338;SDS011;37117;50.050;19.924;2022-11-13T11:26:49;49.20;;;30.80;;
38338;SDS011;37117;50.050;19.924;2022-11-13T11:29:41;54.00;;;30.20;;
38338;SDS011;37117;50.050;19.924;2022-11-13T11:32:35;51.10;;;32.50;;
38338;SDS011;37117;50.050;19.924;2022-11-13T11:35:27;50.80;;;30.50;;
38338;SDS011;37117;50.050;19.924;2022-11-13T11:38:25;49.20;;;29.20;;
38338;SDS011;37117;50.050;19.924;2022-11-13T11:41:16;56.00;;;34.00;;
38338;SDS011;37117;50.050;19.924;2022-11-13T11:44:11;50.80;;;32.10;;
38338;SDS011;37117;50.050;19.924;2022-11-13T11:47:02;49.00;;;28.90;;
38338;SDS011;37117;50.050;19.924;2022-11-13T11:49:52;51.40;;;31.30;;
38338;SDS011;37117;50.050;19.924;2022-11-13T11:52:44;52.10;;;32.30;;
38338;SDS011;37117;50.050;19.924;2022-11-13T11:55:39;53.30;;;30.90;;
38338;SDS011;37117;50.050;19.924;2022-11-13T11:58:34;53.30;;;32.40;;
38338;SDS011;37117;50.050;19.924;2022-11-13T12:01:32;53.70;;;32.20;;
38338;SDS011;37117;50.050;19.924;2022-11-13T12:04:27;55.60;;;32.50;;
38338;SDS011;37117;50.050;19.924;2022-11-13T12:07:25;52.20;;;30.60;;
38338;SDS011;37117;50.050;19.924;2022-11-13T12:10:21;53.60;;;32.30;;
38338;SDS011;37117;50.050;19.924;2022-11-13T12:13:16;58.80;;;34.50;;
38338;SDS011;37117;50.050;19.924;2022-11-13T12:16:08;54.20;;;35.00;;
38338;SDS011;37117;50.050;19.924;2022-11-13T12:19:02;57.80;;;34.80;;
38338;SDS011;37117;50.050;19.924;2022-11-13T12:21:54;58.10;;;35.90;;
38338;SDS011;37117;50.050;19.924;2022-11-13T12:24:52;53.10;;;33.20;;
38338;SDS011;37117;50.050;19.924;2022-11-13T12:27:48;53.80;;;36.00;;
38338;SDS011;37117;50.050;19.924;2022-11-13T12:30:43;55.40;;;34.80;;
38338;SDS011;37117;50.050;19.924;2022-11-13T12:33:36;53.30;;;33.90;;
38338;SDS011;37117;50.050;19.924;2022-11-13T12:36:27;54.50;;;32.00;;
38338;SDS011;37117;50.050;19.924;2022-11-13T12:39:25;50.50;;;34.30;;
38338;SDS011;37117;50.050;19.924;2022-11-13T12:42:18;46.10;;;30.40;;
38338;SDS011;37117;50.050;19.924;2022-11-13T12:45:10;49.00;;;29.90;;
38338;SDS011;37117;50.050;19.924;2022-11-13T12:48:08;50.50;;;32.30;;
38338;SDS011;37117;50.050;19.924;2022-11-13T12:50:58;47.40;;;31.80;;
38338;SDS011;37117;50.050;19.924;2022-11-13T12:53:49;54.50;;;32.70;;
38338;SDS011;37117;50.050;19.924;2022-11-13T12:56:38;50.30;;;31.10;;
38338;SDS011;37117;50.050;19.924;2022-11-13T12:59:31;49.70;;;30.50;;
38338;SDS011;37117;50.050;19.924;2022-11-13T13:02:26;53.00;;;33.60;;
38338;SDS011;37117;50.050;19.924;2022-11-13T13:05:20;60.80;;;35.10;;
38338;SDS011;37117;50.050;19.924;2022-11-13T13:11:03;67.30;;;41.10;;
38338;SDS011;37117;50.050;19.924;2022-11-13T13:14:02;75.50;;;39.40;;
38338;SDS011;37117;50.050;19.924;2022-11-13T13:17:04;62.00;;;37.10;;
38338;SDS011;37117;50.050;19.924;2022-11-13T13:19:58;62.30;;;35.30;;
38338;SDS011;37117;50.050;19.924;2022-11-13T13:22:55;58.90;;;34.40;;
38338;SDS011;37117;50.050;19.924;2022-11-13T13:25:44;57.90;;;34.30;;
38338;SDS011;37117;50.050;19.924;2022-11-13T13:28:37;60.00;;;37.30;;
38338;SDS011;37117;50.050;19.924;2022-11-13T13:31:30;58.80;;;35.00;;
38338;SDS011;37117;50.050;19.924;2022-11-13T13:34:26;57.20;;;34.00;;
38338;SDS011;37117;50.050;19.924;2022-11-13T13:37:24;56.60;;;35.30;;
38338;SDS011;37117;50.050;19.924;2022-11-13T13:40:23;53.10;;;36.90;;
38338;SDS011;37117;50.050;19.924;2022-11-13T13:43:19;56.10;;;35.60;;
38338;SDS011;37117;50.050;19.924;2022-11-13T13:46:13;60.40;;;37.40;;
38338;SDS011;37117;50.050;19.924;2022-11-13T13:49:03;57.60;;;33.80;;
38338;SDS011;37117;50.050;19.924;2022-11-13T13:51:53;48.30;;;32.20;;
38338;SDS011;37117;50.050;19.924;2022-11-13T13:54:43;45.90;;;29.30;;
38338;SDS011;37117;50.050;19.924;2022-11-13T13:57:33;46.20;;;29.10;;
38338;SDS011;37117;50.050;19.924;2022-11-13T14:00:27;51.80;;;31.60;;
38338;SDS011;37117;50.050;19.924;2022-11-13T14:03:18;50.40;;;30.90;;
38338;SDS011;37117;50.050;19.924;2022-11-13T14:06:09;47.10;;;31.00;;
38338;SDS011;37117;50.050;19.924;2022-11-13T14:09:07;43.30;;;28.20;;
38338;SDS011;37117;50.050;19.924;2022-11-13T14:11:57;46.50;;;29.30;;
38338;SDS011;37117;50.050;19.924;2022-11-13T14:14:48;43.50;;;28.20;;
38338;SDS011;37117;50.050;19.924;2022-11-13T14:17:38;43.80;;;27.90;;
38338;SDS011;37117;50.050;19.924;2022-11-13T14:20:27;41.30;;;27.20;;
38338;SDS011;37117;50.050;19.924;2022-11-13T14:23:18;41.30;;;27.80;;
38338;SDS011;37117;50.050;19.924;2022-11-13T14:26:08;48.30;;;28.50;;
38338;SDS011;37117;50.050;19.924;2022-11-13T14:28:59;42.50;;;28.00;;
38338;SDS011;37117;50.050;19.924;2022-11-13T14:31:49;48.30;;;29.40;;
38338;SDS011;37117;50.050;19.924;2022-11-13T14:34:41;45.50;;;27.80;;
38338;SDS011;37117;50.050;19.924;2022-11-13T14:37:32;37.90;;;25.70;;
38338;SDS011;37117;50.050;19.924;2022-11-13T14:40:22;37.30;;;24.20;;
38338;SDS011;37117;50.050;19.924;2022-11-13T14:43:14;37.20;;;24.40;;
38338;SDS011;37117;50.050;19.924;2022-11-13T14:46:05;38.60;;;26.60;;
38338;SDS011;37117;50.050;19.924;2022-11-13T14:49:12;36.30;;;25.60;;
38338;SDS011;37117;50.050;19.924;2022-11-13T14:52:02;38.90;;;27.00;;
38338;SDS011;37117;50.050;19.924;2022-11-13T14:55:03;34.90;;;24.10;;
38338;SDS011;37117;50.050;19.924;2022-11-13T14:58:02;36.40;;;24.60;;
38338;SDS011;37117;50.050;19.924;2022-11-13T15:00:53;36.90;;;24.00;;
38338;SDS011;37117;50.050;19.924;2022-11-13T15:03:45;36.70;;;24.70;;
38338;SDS011;37117;50.050;19.924;2022-11-13T15:06:37;41.90;;;25.80;;
38338;SDS011;37117;50.050;19.924;2022-11-13T15:09:27;41.10;;;27.50;;
38338;SDS011;37117;50.050;19.924;2022-11-13T15:12:18;38.20;;;24.50;;
38338;SDS011;37117;50.050;19.924;2022-11-13T15:15:10;38.50;;;27.30;;
38338;SDS011;37117;50.050;19.924;2022-11-13T15:18:01;33.80;;;21.90;;
38338;SDS011;37117;50.050;19.924;2022-11-13T15:20:50;34.00;;;23.60;;
38338;SDS011;37117;50.050;19.924;2022-11-13T15:23:39;37.30;;;23.60;;
38338;SDS011;37117;50.050;19.924;2022-11-13T15:26:29;40.00;;;25.20;;
38338;SDS011;37117;50.050;19.924;2022-11-13T15:29:18;38.70;;;24.00;;
38338;SDS011;37117;50.050;19.924;2022-11-13T15:32:09;42.50;;;28.20;;
38338;SDS011;37117;50.050;19.924;2022-11-13T15:34:59;42.40;;;27.30;;
38338;SDS011;37117;50.050;19.924;2022-11-13T15:37:48;38.10;;;24.30;;
38338;SDS011;37117;50.050;19.924;2022-11-13T15:40:38;41.80;;;26.70;;
38338;SDS011;37117;50.050;19.924;2022-11-13T15:43:27;37.00;;;25.70;;
38338;SDS011;37117;50.050;19.924;2022-11-13T15:46:18;40.90;;;24.80;;
38338;SDS011;37117;50.050;19.924;2022-11-13T15:49:07;44.70;;;28.90;;
38338;SDS011;37117;50.050;19.924;2022-11-13T15:51:57;46.30;;;29.30;;
38338;SDS011;37117;50.050;19.924;2022-11-13T15:54:45;44.00;;;30.40;;
38338;SDS011;37117;50.050;19.924;2022-11-13T15:57:35;49.40;;;28.90;;
38338;SDS011;37117;50.050;19.924;2022-11-13T16:00:26;45.10;;;27.70;;
38338;SDS011;37117;50.050;19.924;2022-11-13T16:03:16;48.60;;;27.30;;
38338;SDS011;37117;50.050;19.924;2022-11-13T16:06:08;46.90;;;29.70;;
38338;SDS011;37117;50.050;19.924;2022-11-13T16:08:59;52.60;;;32.50;;
38338;SDS011;37117;50.050;19.924;2022-11-13T16:11:49;49.40;;;29.40;;
38338;SDS011;37117;50.050;19.924;2022-11-13T16:14:38;49.70;;;30.50;;
38338;SDS011;37117;50.050;19.924;2022-11-13T16:17:27;50.50;;;31.30;;
38338;SDS011;37117;50.050;19.924;2022-11-13T16:20:17;53.10;;;29.00;;
38338;SDS011;37117;50.050;19.924;2022-11-13T16:23:08;61.30;;;34.80;;
38338;SDS011;37117;50.050;19.924;2022-11-13T16:26:03;55.10;;;35.90;;
38338;SDS011;37117;50.050;19.924;2022-11-13T16:28:53;64.00;;;35.10;;
38338;SDS011;37117;50.050;19.924;2022-11-13T16:32:03;61.40;;;34.80;;
38338;SDS011;37117;50.050;19.924;2022-11-13T16:34:52;57.60;;;32.60;;
38338;SDS011;37117;50.050;19.924;2022-11-13T16:37:42;60.10;;;31.50;;
38338;SDS011;37117;50.050;19.924;2022-11-13T16:40:31;63.10;;;34.60;;